createdAt,value
2023-03-29T00:01:35.789Z,7.26
2023-03-29T00:04:06.475Z,7.42
2023-03-29T00:06:33.673Z,7.43
2023-03-29T00:09:01.571Z,7.29
2023-03-29T00:11:27.971Z,7.36
2023-03-29T00:13:54.382Z,7.46
2023-03-29T00:16:21.139Z,7.42
2023-03-29T00:18:47.573Z,7.42
2023-03-29T00:21:14.006Z,7.33
2023-03-29T00:23:40.360Z,7.49
2023-03-29T00:26:08.274Z,7.47
2023-03-29T00:28:35.402Z,7.46
2023-03-29T00:31:10.431Z,7.29
2023-03-29T00:33:37.805Z,7.30
2023-03-29T00:36:04.617Z,7.39
2023-03-29T00:38:31.825Z,7.28
2023-03-29T00:40:58.520Z,7.24
2023-03-29T00:43:25.057Z,7.33
2023-03-29T00:45:51.462Z,7.46
2023-03-29T00:48:22.110Z,7.42
2023-03-29T00:50:53.938Z,7.47
2023-03-29T00:53:42.660Z,7.60
2023-03-29T00:56:18.464Z,7.61
2023-03-29T00:58:54.863Z,7.69
2023-03-29T01:01:28.547Z,7.74
2023-03-29T01:04:04.535Z,7.57
2023-03-29T01:06:35.076Z,7.33
2023-03-29T01:09:07.981Z,7.26
2023-03-29T01:11:39.695Z,7.28
2023-03-29T01:14:15.477Z,7.31
2023-03-29T01:16:42.383Z,7.39
2023-03-29T01:19:13.693Z,7.17
2023-03-29T01:21:44.870Z,7.21
2023-03-29T01:24:20.339Z,7.33
2023-03-29T01:26:59.643Z,7.43
2023-03-29T01:29:38.966Z,7.52
2023-03-29T01:32:23.436Z,7.53
2023-03-29T01:34:57.588Z,7.59
2023-03-29T01:37:32.337Z,7.50
2023-03-29T01:39:58.755Z,7.52
2023-03-29T01:42:36.357Z,7.51
2023-03-29T01:45:09.837Z,7.50
2023-03-29T01:47:47.726Z,7.58
2023-03-29T01:50:27.269Z,7.53
2023-03-29T01:53:04.166Z,7.54
2023-03-29T01:55:35.998Z,7.52
2023-03-29T01:58:05.776Z,7.41
2023-03-29T02:00:34.778Z,7.35
2023-03-29T02:03:07.845Z,7.36
2023-03-29T02:05:37.356Z,7.41
2023-03-29T02:08:05.626Z,7.25
2023-03-29T02:10:34.000Z,7.26
2023-03-29T02:13:00.901Z,7.37
2023-03-29T02:15:27.995Z,7.51
2023-03-29T02:17:54.624Z,7.49
2023-03-29T02:20:29.954Z,7.43
2023-03-29T02:23:12.986Z,7.57
2023-03-29T02:25:39.505Z,7.50
2023-03-29T02:28:06.922Z,7.46
2023-03-29T02:30:54.595Z,7.56
2023-03-29T02:33:31.198Z,7.61
2023-03-29T02:36:04.240Z,7.61
2023-03-29T02:38:31.946Z,7.47
2023-03-29T02:41:00.287Z,7.56
2023-03-29T02:43:28.608Z,7.61
2023-03-29T02:45:55.778Z,7.49
2023-03-29T02:48:26.790Z,7.52
2023-03-29T02:50:59.866Z,7.54
2023-03-29T02:53:45.699Z,7.43
2023-03-29T02:56:13.450Z,7.46
2023-03-29T02:58:40.946Z,7.37
2023-03-29T03:01:08.319Z,7.30
2023-03-29T03:03:35.812Z,7.26
2023-03-29T03:06:02.601Z,7.18
2023-03-29T03:08:29.121Z,7.05
2023-03-29T03:10:55.633Z,6.93
2023-03-29T03:13:22.057Z,6.93
2023-03-29T03:15:49.303Z,6.83
2023-03-29T03:18:16.645Z,7.05
2023-03-29T03:20:46.449Z,6.84
2023-03-29T03:23:12.879Z,7.09
2023-03-29T03:25:39.419Z,6.95
2023-03-29T03:28:06.005Z,7.11
2023-03-29T03:30:33.802Z,7.07
2023-03-29T03:33:00.367Z,7.03
2023-03-29T03:35:26.751Z,7.08
2023-03-29T03:37:53.090Z,7.13
2023-03-29T03:40:20.758Z,7.15
2023-03-29T03:42:47.209Z,7.07
2023-03-29T03:45:13.700Z,6.98
2023-03-29T03:47:40.935Z,6.95
2023-03-29T03:50:09.030Z,7.02
2023-03-29T03:52:35.547Z,6.93
2023-03-29T03:55:03.016Z,6.88
2023-03-29T03:57:29.668Z,6.79
2023-03-29T03:59:56.283Z,6.78
2023-03-29T04:02:22.939Z,6.76
2023-03-29T04:04:49.348Z,6.73
2023-03-29T04:07:17.757Z,6.79
2023-03-29T04:09:45.041Z,6.82
2023-03-29T04:12:11.974Z,6.75
2023-03-29T04:14:38.515Z,6.77
2023-03-29T04:17:05.629Z,6.75
2023-03-29T04:19:32.010Z,6.72
2023-03-29T04:21:58.451Z,6.74
2023-03-29T04:24:25.124Z,6.73
2023-03-29T04:26:51.503Z,6.79
2023-03-29T04:29:18.003Z,6.79
2023-03-29T04:31:44.472Z,6.67
2023-03-29T04:34:10.984Z,6.66
2023-03-29T04:36:37.522Z,6.73
2023-03-29T04:39:04.421Z,6.76
2023-03-29T04:41:32.532Z,6.76
2023-03-29T04:43:58.928Z,6.82
2023-03-29T04:46:26.489Z,6.78
2023-03-29T04:48:53.989Z,6.80
2023-03-29T04:51:22.188Z,6.84
2023-03-29T04:53:50.326Z,6.84
2023-03-29T04:56:17.263Z,6.89
2023-03-29T04:58:44.338Z,6.89
2023-03-29T05:01:10.984Z,6.91
2023-03-29T05:03:37.469Z,6.97
2023-03-29T05:06:08.730Z,6.84
2023-03-29T05:08:38.874Z,6.91
2023-03-29T05:11:10.348Z,7.02
2023-03-29T05:13:38.170Z,7.12
2023-03-29T05:16:05.233Z,7.15
2023-03-29T05:18:31.816Z,7.18
2023-03-29T05:20:59.510Z,7.20
2023-03-29T05:23:26.361Z,7.24
2023-03-29T05:25:55.883Z,7.20
2023-03-29T05:28:22.890Z,7.25
2023-03-29T05:31:00.064Z,7.17
2023-03-29T05:33:27.080Z,7.18
2023-03-29T05:36:05.225Z,7.01
2023-03-29T05:38:35.703Z,6.97
2023-03-29T05:41:02.987Z,6.86
2023-03-29T05:43:29.858Z,6.90
2023-03-29T05:45:56.495Z,7.02
2023-03-29T05:48:25.737Z,7.06
2023-03-29T05:50:53.872Z,7.14
2023-03-29T05:53:22.167Z,7.13
2023-03-29T05:55:48.818Z,7.03
2023-03-29T05:58:17.970Z,7.12
2023-03-29T06:00:44.902Z,7.11
2023-03-29T06:03:21.301Z,7.08
2023-03-29T06:05:56.323Z,6.93
2023-03-29T06:08:23.334Z,7.15
2023-03-29T06:10:50.163Z,7.09
2023-03-29T06:13:17.089Z,7.20
2023-03-29T06:15:43.448Z,7.02
2023-03-29T06:18:09.940Z,7.13
2023-03-29T06:20:36.384Z,7.25
2023-03-29T06:23:02.779Z,7.31
2023-03-29T06:25:29.967Z,7.42
2023-03-29T06:27:56.365Z,7.35
2023-03-29T06:30:23.295Z,7.41
2023-03-29T06:32:50.559Z,7.38
2023-03-29T06:35:17.116Z,7.57
2023-03-29T06:37:49.367Z,7.59
2023-03-29T06:40:17.565Z,7.76
2023-03-29T06:42:45.073Z,7.81
2023-03-29T06:45:11.678Z,7.84
2023-03-29T06:47:38.110Z,7.77
2023-03-29T06:50:05.493Z,7.81
2023-03-29T06:52:31.905Z,7.80
2023-03-29T06:54:58.420Z,7.91
2023-03-29T06:57:25.303Z,7.88
2023-03-29T06:59:51.744Z,7.95
2023-03-29T07:02:18.113Z,8.05
2023-03-29T07:04:44.586Z,8.28
2023-03-29T07:07:19.935Z,8.74
2023-03-29T07:09:53.888Z,8.91
2023-03-29T07:12:22.437Z,8.71
2023-03-29T07:14:48.873Z,8.71
2023-03-29T07:17:16.626Z,8.75
2023-03-29T07:19:43.316Z,8.92
2023-03-29T07:22:09.918Z,9.13
2023-03-29T07:24:36.327Z,9.02
2023-03-29T07:27:04.434Z,9.12
2023-03-29T07:29:31.989Z,9.41
2023-03-29T07:31:58.412Z,9.44
2023-03-29T07:34:24.787Z,9.27
2023-03-29T07:36:51.577Z,9.22
2023-03-29T07:39:18.117Z,9.27
2023-03-29T07:41:44.531Z,9.42
2023-03-29T07:44:10.916Z,9.38
2023-03-29T07:46:37.885Z,9.13
2023-03-29T07:49:04.647Z,9.03
2023-03-29T07:51:31.633Z,9.17
2023-03-29T07:53:58.034Z,9.25
2023-03-29T07:56:24.781Z,9.32
2023-03-29T07:58:51.694Z,9.25
2023-03-29T08:01:19.923Z,9.33
2023-03-29T08:03:46.663Z,9.32
2023-03-29T08:06:13.264Z,9.44
2023-03-29T08:08:39.648Z,9.46
2023-03-29T08:11:08.836Z,9.57
2023-03-29T08:13:35.272Z,9.81
2023-03-29T08:16:02.043Z,10.41
2023-03-29T08:18:28.452Z,10.10
2023-03-29T08:20:54.815Z,9.70
2023-03-29T08:23:21.306Z,9.80
2023-03-29T08:25:47.738Z,9.43
2023-03-29T08:28:14.181Z,9.90
2023-03-29T08:30:40.556Z,9.80
2023-03-29T08:33:07.572Z,9.88
2023-03-29T08:35:34.066Z,10.12
2023-03-29T08:38:00.687Z,10.48
2023-03-29T08:40:30.072Z,10.46
2023-03-29T08:43:12.579Z,10.46
2023-03-29T08:45:55.937Z,10.48
2023-03-29T08:48:22.312Z,10.66
2023-03-29T08:50:54.718Z,10.70
2023-03-29T08:53:31.358Z,10.80
2023-03-29T08:55:59.902Z,10.74
2023-03-29T08:58:31.538Z,10.77
2023-03-29T09:01:00.122Z,10.84
2023-03-29T09:03:38.104Z,10.89
2023-03-29T09:06:07.576Z,10.98
2023-03-29T09:08:43.567Z,11.62
2023-03-29T09:11:19.019Z,11.73
2023-03-29T09:14:23.144Z,12.02
2023-03-29T09:17:33.674Z,12.09
2023-03-29T09:20:31.300Z,12.06
2023-03-29T09:23:03.721Z,12.10
2023-03-29T09:26:02.127Z,12.19
2023-03-29T09:28:40.609Z,12.07
2023-03-29T09:31:18.106Z,12.31
2023-03-29T09:33:50.391Z,12.53
2023-03-29T09:36:25.322Z,12.62
2023-03-29T09:38:54.453Z,12.45
2023-03-29T09:41:33.776Z,12.67
2023-03-29T09:44:05.800Z,13.12
2023-03-29T09:47:01.930Z,13.27
2023-03-29T09:49:34.599Z,13.26
2023-03-29T09:52:08.792Z,13.56
2023-03-29T09:54:35.610Z,12.81
2023-03-29T09:57:02.088Z,13.17
2023-03-29T09:59:28.584Z,13.45
2023-03-29T10:02:05.938Z,13.76
2023-03-29T10:04:32.477Z,13.87
2023-03-29T10:06:59.868Z,13.91
2023-03-29T10:09:29.909Z,13.97
2023-03-29T10:12:05.079Z,13.77
2023-03-29T10:14:38.136Z,13.87
2023-03-29T10:17:11.618Z,14.22
2023-03-29T10:19:38.019Z,14.18
2023-03-29T10:22:17.587Z,14.47
2023-03-29T10:24:52.203Z,14.41
2023-03-29T10:27:27.778Z,14.38
2023-03-29T10:29:55.270Z,14.48
2023-03-29T10:32:21.747Z,14.92
2023-03-29T10:34:49.630Z,14.72
2023-03-29T10:37:19.396Z,14.92
2023-03-29T10:39:48.185Z,15.20
2023-03-29T10:42:23.630Z,15.19
2023-03-29T10:44:58.071Z,15.49
2023-03-29T10:47:25.449Z,15.82
2023-03-29T10:49:56.624Z,15.59
2023-03-29T10:52:23.632Z,15.59
2023-03-29T10:54:52.581Z,16.02
2023-03-29T10:57:57.386Z,16.09
2023-03-29T11:00:33.869Z,16.05
2023-03-29T11:03:15.885Z,16.02
2023-03-29T11:06:06.972Z,16.58
2023-03-29T11:08:48.332Z,16.79
2023-03-29T11:12:04.745Z,17.12
2023-03-29T11:15:11.026Z,17.31
2023-03-29T11:18:14.438Z,17.04
2023-03-29T11:21:10.807Z,16.88
2023-03-29T11:23:40.004Z,16.42
2023-03-29T11:26:31.177Z,16.58
2023-03-29T11:29:04.367Z,16.81
2023-03-29T11:31:44.342Z,16.74
2023-03-29T11:34:17.543Z,16.55
2023-03-29T11:36:55.030Z,16.88
2023-03-29T11:39:58.930Z,16.59
2023-03-29T11:42:32.047Z,16.46
2023-03-29T11:45:02.092Z,16.26
2023-03-29T11:47:36.545Z,16.63
2023-03-29T11:50:13.384Z,16.61
2023-03-29T11:52:47.187Z,16.54
2023-03-29T11:55:26.110Z,16.71
2023-03-29T11:57:57.976Z,16.73
2023-03-29T12:00:30.438Z,16.75
2023-03-29T12:02:56.868Z,16.98
2023-03-29T12:05:30.234Z,17.52
2023-03-29T12:08:18.797Z,17.81
2023-03-29T12:10:51.427Z,18.12
2023-03-29T12:13:20.192Z,18.01
2023-03-29T12:16:01.135Z,18.09
2023-03-29T12:18:38.365Z,18.26
2023-03-29T12:21:11.784Z,18.27
2023-03-29T12:23:38.592Z,18.18
2023-03-29T12:26:17.008Z,18.20
2023-03-29T12:28:55.676Z,18.23
2023-03-29T12:31:38.626Z,18.11
2023-03-29T12:34:10.289Z,18.19
2023-03-29T12:37:09.132Z,18.29
2023-03-29T12:39:36.916Z,18.16
2023-03-29T12:42:15.244Z,17.81
2023-03-29T12:44:46.978Z,17.99
2023-03-29T12:47:21.348Z,17.97
2023-03-29T12:49:56.541Z,17.61
2023-03-29T12:52:42.917Z,17.72
2023-03-29T12:55:31.158Z,17.86
2023-03-29T12:58:23.067Z,18.14
2023-03-29T13:00:57.684Z,17.87
2023-03-29T13:03:27.110Z,17.93
2023-03-29T13:06:02.537Z,17.86
2023-03-29T13:08:45.634Z,17.65
2023-03-29T13:11:27.233Z,17.91
2023-03-29T13:13:54.025Z,17.82
2023-03-29T13:16:29.860Z,17.83
2023-03-29T13:19:09.838Z,17.72
2023-03-29T13:22:00.501Z,18.11
2023-03-29T13:24:39.059Z,18.08
2023-03-29T13:27:17.976Z,18.46
2023-03-29T13:30:15.425Z,18.44
2023-03-29T13:32:57.080Z,18.46
2023-03-29T13:35:26.560Z,18.34
2023-03-29T13:38:17.926Z,18.86
2023-03-29T13:40:56.801Z,18.95
2023-03-29T13:43:34.922Z,18.35
2023-03-29T13:46:01.418Z,18.76
2023-03-29T13:48:31.757Z,18.69
2023-03-29T13:51:08.301Z,18.81
2023-03-29T13:53:51.536Z,18.77
2023-03-29T13:56:26.239Z,18.85
2023-03-29T13:59:00.528Z,18.81
2023-03-29T14:01:40.738Z,18.74
2023-03-29T14:04:15.530Z,18.92
2023-03-29T14:06:45.640Z,19.02
2023-03-29T14:09:15.331Z,18.89
2023-03-29T14:11:45.655Z,18.98
2023-03-29T14:14:12.301Z,18.82
2023-03-29T14:16:40.613Z,18.72
2023-03-29T14:19:29.430Z,18.48
2023-03-29T14:21:57.559Z,18.39
2023-03-29T14:24:38.642Z,18.42
2023-03-29T14:27:06.551Z,18.27
2023-03-29T14:29:34.557Z,18.04
2023-03-29T14:32:18.394Z,17.96
2023-03-29T14:34:49.448Z,18.23
2023-03-29T14:37:23.652Z,18.23
2023-03-29T14:39:50.667Z,18.12
2023-03-29T14:42:26.667Z,18.08
2023-03-29T14:45:04.582Z,18.21
2023-03-29T14:47:33.737Z,18.11
2023-03-29T14:50:01.781Z,18.22
2023-03-29T14:52:30.273Z,18.21
2023-03-29T14:54:59.581Z,17.93
2023-03-29T14:57:32.809Z,18.00
2023-03-29T15:00:01.778Z,17.94
2023-03-29T15:02:31.094Z,17.98
2023-03-29T15:05:03.338Z,18.04
2023-03-29T15:07:31.498Z,18.02
2023-03-29T15:09:59.927Z,18.01
2023-03-29T15:12:30.658Z,17.94
2023-03-29T15:14:57.759Z,18.07
2023-03-29T15:17:50.466Z,17.88
2023-03-29T15:20:21.463Z,18.02
2023-03-29T15:22:56.881Z,18.13
2023-03-29T15:25:33.512Z,18.01
2023-03-29T15:28:01.523Z,17.79
2023-03-29T15:30:57.379Z,18.00
2023-03-29T15:33:34.508Z,17.75
2023-03-29T15:36:03.498Z,17.88
2023-03-29T15:38:42.577Z,17.66
2023-03-29T15:41:10.818Z,17.87
2023-03-29T15:43:37.449Z,17.64
2023-03-29T15:46:04.324Z,17.69
2023-03-29T15:48:33.406Z,17.54
2023-03-29T15:51:03.797Z,17.69
2023-03-29T15:53:32.199Z,17.42
2023-03-29T15:56:01.186Z,17.40
2023-03-29T15:58:30.259Z,17.37
2023-03-29T16:01:23.305Z,17.53
2023-03-29T16:03:50.122Z,17.55
2023-03-29T16:06:22.067Z,17.42
2023-03-29T16:08:48.472Z,17.25
2023-03-29T16:11:14.880Z,17.09
2023-03-29T16:13:41.409Z,16.88
2023-03-29T16:16:10.645Z,17.03
2023-03-29T16:18:37.692Z,17.07
2023-03-29T16:21:04.725Z,17.02
2023-03-29T16:23:31.303Z,16.98
2023-03-29T16:25:59.326Z,17.06
2023-03-29T16:28:25.842Z,17.09
2023-03-29T16:30:52.257Z,16.92
2023-03-29T16:33:18.655Z,17.09
2023-03-29T16:35:45.042Z,17.34
2023-03-29T16:38:11.456Z,17.09
2023-03-29T16:40:38.404Z,17.08
2023-03-29T16:43:05.440Z,17.30
2023-03-29T16:45:31.886Z,17.15
2023-03-29T16:47:58.295Z,17.00
2023-03-29T16:50:24.819Z,16.77
2023-03-29T16:52:52.482Z,16.60
2023-03-29T16:55:19.276Z,16.53
2023-03-29T16:57:47.297Z,16.82
2023-03-29T17:00:15.978Z,16.62
2023-03-29T17:02:43.523Z,16.52
2023-03-29T17:05:11.170Z,16.55
2023-03-29T17:07:39.131Z,16.50
2023-03-29T17:10:09.931Z,16.53
2023-03-29T17:15:15.281Z,16.51
2023-03-29T17:17:41.766Z,16.43
2023-03-29T17:20:12.317Z,16.29
2023-03-29T17:22:39.733Z,16.41
2023-03-29T17:25:07.479Z,16.47
2023-03-29T17:27:35.050Z,16.41
2023-03-29T17:30:02.129Z,16.50
2023-03-29T17:32:28.537Z,16.49
2023-03-29T17:34:55.001Z,16.44
2023-03-29T17:37:21.424Z,16.20
2023-03-29T17:39:47.760Z,16.16
2023-03-29T17:42:15.916Z,16.09
2023-03-29T17:44:42.260Z,15.92
2023-03-29T17:47:08.712Z,15.79
2023-03-29T17:49:35.131Z,15.69
2023-03-29T17:52:01.630Z,15.58
2023-03-29T17:54:28.135Z,15.49
2023-03-29T17:56:54.558Z,15.46
2023-03-29T17:59:21.012Z,15.41
2023-03-29T18:01:47.450Z,15.35
2023-03-29T18:04:13.920Z,15.40
2023-03-29T18:06:40.423Z,15.32
2023-03-29T18:09:06.861Z,15.19
2023-03-29T18:11:33.259Z,15.01
2023-03-29T18:14:00.870Z,14.88
2023-03-29T18:16:27.458Z,14.86
2023-03-29T18:18:54.054Z,14.66
2023-03-29T18:21:20.842Z,14.68
2023-03-29T18:23:49.057Z,14.48
2023-03-29T18:26:16.473Z,14.58
2023-03-29T18:28:46.903Z,14.65
2023-03-29T18:31:13.755Z,14.48
2023-03-29T18:33:40.205Z,14.39
2023-03-29T18:36:10.760Z,14.49
2023-03-29T18:38:40.396Z,14.48
2023-03-29T18:41:08.512Z,14.49
2023-03-29T18:43:36.983Z,14.33
2023-03-29T18:46:03.566Z,14.55
2023-03-29T18:48:31.085Z,14.79
2023-03-29T18:50:57.848Z,14.72
2023-03-29T18:53:24.469Z,14.81
2023-03-29T18:55:50.866Z,14.83
2023-03-29T18:58:17.823Z,14.84
2023-03-29T19:00:44.483Z,14.78
2023-03-29T19:03:11.083Z,14.78
2023-03-29T19:05:41.095Z,14.86
2023-03-29T19:08:08.435Z,14.61
2023-03-29T19:10:36.572Z,14.58
2023-03-29T19:13:04.175Z,14.48
2023-03-29T19:15:31.376Z,14.36
2023-03-29T19:17:58.000Z,14.36
2023-03-29T19:20:25.443Z,14.32
2023-03-29T19:22:53.210Z,14.33
2023-03-29T19:25:20.274Z,14.23
2023-03-29T19:27:46.710Z,14.23
2023-03-29T19:30:14.556Z,14.09
2023-03-29T19:32:40.939Z,14.11
2023-03-29T19:35:09.560Z,13.97
2023-03-29T19:37:36.156Z,13.99
2023-03-29T19:40:03.115Z,13.97
2023-03-29T19:42:29.646Z,13.90
2023-03-29T19:44:56.395Z,13.93
2023-03-29T19:47:22.865Z,14.02
2023-03-29T19:49:49.246Z,13.98
2023-03-29T19:52:15.644Z,13.94
2023-03-29T19:54:42.419Z,13.98
2023-03-29T19:57:09.294Z,13.98
2023-03-29T19:59:37.618Z,13.92
2023-03-29T20:02:04.042Z,13.93
2023-03-29T20:04:33.085Z,13.91
2023-03-29T20:06:59.592Z,14.01
2023-03-29T20:09:26.047Z,13.98
2023-03-29T20:11:52.410Z,13.91
2023-03-29T20:14:18.927Z,13.81
2023-03-29T20:16:46.200Z,13.86
2023-03-29T20:19:14.037Z,13.76
2023-03-29T20:21:40.702Z,13.71
2023-03-29T20:24:08.648Z,13.87
2023-03-29T20:26:35.600Z,13.86
2023-03-29T20:29:02.634Z,13.70
2023-03-29T20:31:29.995Z,13.70
2023-03-29T20:33:57.564Z,13.64
2023-03-29T20:36:26.541Z,13.62
2023-03-29T20:38:55.187Z,13.51
2023-03-29T20:41:22.824Z,13.53
2023-03-29T20:43:58.032Z,13.57
2023-03-29T20:46:33.029Z,13.60
2023-03-29T20:49:04.612Z,13.34
2023-03-29T20:51:32.028Z,13.30
2023-03-29T20:54:04.683Z,13.18
2023-03-29T20:56:39.926Z,13.23
2023-03-29T20:59:10.345Z,13.32
2023-03-29T21:01:40.452Z,13.39
2023-03-29T21:04:08.368Z,13.43
2023-03-29T21:06:36.090Z,13.40
2023-03-29T21:09:02.555Z,13.46
2023-03-29T21:11:29.012Z,13.37
2023-03-29T21:13:55.422Z,13.26
2023-03-29T21:16:22.013Z,13.09
2023-03-29T21:18:48.473Z,13.07
2023-03-29T21:21:14.879Z,12.94
2023-03-29T21:23:41.287Z,13.06
2023-03-29T21:26:07.824Z,13.09
2023-03-29T21:28:34.274Z,13.08
2023-03-29T21:31:04.816Z,13.10
2023-03-29T21:33:31.649Z,13.10
2023-03-29T21:35:58.224Z,13.13
2023-03-29T21:38:24.738Z,13.31
2023-03-29T21:40:51.162Z,13.16
2023-03-29T21:43:17.648Z,13.04
2023-03-29T21:45:48.327Z,13.07
2023-03-29T21:48:14.880Z,13.02
2023-03-29T21:50:41.341Z,12.85
2023-03-29T21:53:07.828Z,12.80
2023-03-29T21:55:37.715Z,12.77
2023-03-29T21:58:04.631Z,12.68
2023-03-29T22:00:31.748Z,12.62
2023-03-29T22:02:58.300Z,12.39
2023-03-29T22:05:26.151Z,12.34
2023-03-29T22:07:52.794Z,12.35
2023-03-29T22:10:23.103Z,12.34
2023-03-29T22:12:50.787Z,12.22
2023-03-29T22:15:20.595Z,12.22
2023-03-29T22:17:47.714Z,12.11
2023-03-29T22:20:15.166Z,12.02
2023-03-29T22:22:52.438Z,11.97
2023-03-29T22:25:19.503Z,12.20
2023-03-29T22:27:47.794Z,11.99
2023-03-29T22:30:15.555Z,11.92
2023-03-29T22:32:42.324Z,11.81
2023-03-29T22:35:09.702Z,11.83
2023-03-29T22:37:43.506Z,11.81
2023-03-29T22:40:11.343Z,11.95
2023-03-29T22:42:37.969Z,11.92
2023-03-29T22:45:06.411Z,12.10
2023-03-29T22:47:32.883Z,12.07
2023-03-29T22:49:59.409Z,12.06
2023-03-29T22:52:25.831Z,11.95
2023-03-29T22:54:52.182Z,11.84
2023-03-29T22:57:18.606Z,11.78
2023-03-29T22:59:45.028Z,11.68
2023-03-29T23:02:11.591Z,11.50
2023-03-29T23:04:38.686Z,11.21
2023-03-29T23:07:06.071Z,11.22
2023-03-29T23:09:32.885Z,11.43
2023-03-29T23:12:01.080Z,11.50
2023-03-29T23:14:27.969Z,11.61
2023-03-29T23:16:54.400Z,11.55
2023-03-29T23:19:20.832Z,11.69
2023-03-29T23:21:47.236Z,11.57
2023-03-29T23:24:13.681Z,11.60
2023-03-29T23:26:40.078Z,11.95
2023-03-29T23:29:06.478Z,11.51
2023-03-29T23:31:33.617Z,11.39
2023-03-29T23:34:00.130Z,11.36
2023-03-29T23:36:30.999Z,11.57
2023-03-29T23:38:59.432Z,11.67
2023-03-29T23:41:30.429Z,11.58
2023-03-29T23:43:57.573Z,11.51
2023-03-29T23:46:24.614Z,11.48
2023-03-29T23:48:51.375Z,11.34
2023-03-29T23:51:18.861Z,11.41
2023-03-29T23:53:46.522Z,11.36
2023-03-29T23:56:13.136Z,11.30
2023-03-29T23:58:39.656Z,11.28
